createdAt,value
2022-10-12T00:00:51.748Z,11.23
2022-10-12T00:03:19.544Z,11.11
2022-10-12T00:05:46.724Z,10.98
2022-10-12T00:08:16.070Z,11.03
2022-10-12T00:10:44.139Z,11.08
2022-10-12T00:13:12.316Z,11.07
2022-10-12T00:15:40.045Z,11.07
2022-10-12T00:18:09.596Z,11.06
2022-10-12T00:20:36.227Z,10.99
2022-10-12T00:23:02.765Z,11.01
2022-10-12T00:25:29.414Z,11.11
2022-10-12T00:27:55.952Z,10.85
2022-10-12T00:30:25.495Z,10.86
2022-10-12T00:32:54.369Z,11.03
2022-10-12T00:35:20.878Z,10.85
2022-10-12T00:37:47.346Z,11.06
2022-10-12T00:40:13.870Z,10.94
2022-10-12T00:42:42.456Z,10.91
2022-10-12T00:45:09.423Z,10.94
2022-10-12T00:47:47.337Z,10.88
2022-10-12T00:50:28.648Z,10.91
2022-10-12T00:52:55.084Z,11.04
2022-10-12T00:55:25.100Z,11.18
2022-10-12T00:57:53.598Z,11.22
2022-10-12T01:00:20.472Z,11.03
2022-10-12T01:02:50.223Z,11.28
2022-10-12T01:05:18.310Z,11.14
2022-10-12T01:07:44.876Z,11.27
2022-10-12T01:10:13.369Z,11.31
2022-10-12T01:12:43.360Z,11.16
2022-10-12T01:15:11.556Z,11.41
2022-10-12T01:18:01.096Z,11.36
2022-10-12T01:20:57.434Z,11.44
2022-10-12T01:24:00.265Z,11.42
2022-10-12T01:27:03.058Z,11.56
2022-10-12T01:29:53.213Z,11.66
2022-10-12T01:32:38.538Z,11.46
2022-10-12T01:35:14.845Z,11.62
2022-10-12T01:37:56.360Z,11.54
2022-10-12T01:40:53.221Z,11.57
2022-10-12T01:43:23.699Z,11.67
2022-10-12T01:45:50.479Z,11.63
2022-10-12T01:48:17.575Z,11.63
2022-10-12T01:50:50.770Z,11.75
2022-10-12T01:53:35.383Z,11.86
2022-10-12T01:56:51.543Z,11.69
2022-10-12T01:59:30.587Z,11.82
2022-10-12T02:02:19.876Z,11.81
2022-10-12T02:04:54.949Z,11.71
2022-10-12T02:07:42.296Z,11.92
2022-10-12T02:10:16.271Z,11.85
2022-10-12T02:12:45.322Z,12.11
2022-10-12T02:15:14.501Z,11.92
2022-10-12T02:17:44.008Z,12.09
2022-10-12T02:20:15.073Z,12.22
2022-10-12T02:22:44.050Z,12.08
2022-10-12T02:25:12.687Z,12.43
2022-10-12T02:27:44.723Z,12.39
2022-10-12T02:30:11.953Z,12.35
2022-10-12T02:32:47.368Z,12.27
2022-10-12T02:35:31.961Z,12.34
2022-10-12T02:38:09.560Z,12.27
2022-10-12T02:40:52.481Z,12.28
2022-10-12T02:43:39.664Z,12.38
2022-10-12T02:46:09.342Z,12.53
2022-10-12T02:48:38.543Z,12.80
2022-10-12T02:51:07.233Z,13.50
2022-10-12T02:53:34.090Z,13.80
2022-10-12T02:56:07.150Z,13.82
2022-10-12T02:58:33.789Z,14.23
2022-10-12T03:01:00.325Z,14.09
2022-10-12T03:03:26.917Z,14.49
2022-10-12T03:05:53.733Z,14.06
2022-10-12T03:08:20.202Z,14.42
2022-10-12T03:10:46.700Z,14.42
2022-10-12T03:13:13.176Z,14.12
2022-10-12T03:15:39.679Z,13.68
2022-10-12T03:18:06.220Z,13.50
2022-10-12T03:20:32.725Z,13.17
2022-10-12T03:22:59.174Z,13.11
2022-10-12T03:25:25.753Z,13.07
2022-10-12T03:27:52.327Z,12.96
2022-10-12T03:30:18.839Z,13.42
2022-10-12T03:32:45.418Z,12.94
2022-10-12T03:35:13.156Z,12.94
2022-10-12T03:37:40.168Z,12.40
2022-10-12T03:44:52.609Z,13.21
2022-10-12T03:47:15.858Z,13.62
2022-10-12T03:49:42.561Z,13.95
2022-10-12T03:52:09.219Z,14.32
2022-10-12T03:54:35.756Z,14.02
2022-10-12T03:57:02.309Z,14.18
2022-10-12T03:59:28.866Z,13.06
2022-10-12T04:01:55.525Z,12.91
2022-10-12T04:04:22.114Z,12.84
2022-10-12T04:06:48.749Z,13.23
2022-10-12T04:09:15.316Z,13.95
2022-10-12T04:11:41.917Z,13.83
2022-10-12T04:14:08.525Z,14.23
2022-10-12T04:16:35.058Z,14.69
2022-10-12T04:19:01.718Z,14.89
2022-10-12T04:21:31.407Z,14.33
2022-10-12T04:23:58.350Z,14.54
2022-10-12T04:26:24.905Z,13.87
2022-10-12T04:28:51.558Z,14.46
2022-10-12T04:31:18.743Z,14.64
2022-10-12T04:33:45.299Z,13.67
2022-10-12T04:36:12.017Z,13.34
2022-10-12T04:38:38.743Z,13.28
2022-10-12T04:41:05.608Z,13.12
2022-10-12T04:43:32.550Z,13.16
2022-10-12T04:46:00.062Z,13.36
2022-10-12T04:48:27.149Z,13.36
2022-10-12T04:50:53.756Z,13.23
2022-10-12T04:53:20.486Z,13.42
2022-10-12T04:55:47.219Z,13.34
2022-10-12T04:58:14.133Z,13.36
2022-10-12T05:00:40.929Z,13.10
2022-10-12T05:03:07.856Z,12.85
2022-10-12T05:05:35.994Z,12.85
2022-10-12T05:08:03.482Z,12.60
2022-10-12T05:10:30.062Z,12.68
2022-10-12T05:12:56.625Z,12.98
2022-10-12T05:15:23.189Z,12.60
2022-10-12T05:17:49.824Z,12.53
2022-10-12T05:20:16.619Z,12.30
2022-10-12T05:22:43.165Z,12.34
2022-10-12T05:25:10.022Z,12.25
2022-10-12T05:27:36.831Z,12.23
2022-10-12T05:30:04.891Z,12.12
2022-10-12T05:32:31.483Z,11.81
2022-10-12T05:34:58.305Z,11.89
2022-10-12T05:37:24.953Z,12.04
2022-10-12T05:39:52.033Z,11.74
2022-10-12T05:42:18.816Z,11.66
2022-10-12T05:44:45.557Z,11.87
2022-10-12T05:47:12.319Z,11.98
2022-10-12T05:49:38.914Z,11.86
2022-10-12T05:52:05.533Z,11.81
2022-10-12T05:54:32.083Z,11.78
2022-10-12T05:56:58.902Z,11.67
2022-10-12T05:59:25.509Z,11.81
2022-10-12T06:01:52.164Z,12.05
2022-10-12T06:04:19.098Z,11.75
2022-10-12T06:06:45.708Z,11.74
2022-10-12T06:09:12.955Z,12.00
2022-10-12T06:11:39.685Z,11.88
2022-10-12T06:14:06.279Z,11.90
2022-10-12T06:16:33.465Z,12.05
2022-10-12T06:19:00.026Z,11.95
2022-10-12T06:21:33.537Z,11.91
2022-10-12T06:24:01.280Z,11.83
2022-10-12T06:26:27.927Z,11.98
2022-10-12T06:28:54.708Z,12.24
2022-10-12T06:31:21.606Z,12.19
2022-10-12T06:33:50.194Z,12.00
2022-10-12T06:36:16.921Z,12.08
2022-10-12T06:38:43.522Z,12.25
2022-10-12T06:41:10.178Z,12.31
2022-10-12T06:43:36.770Z,12.65
2022-10-12T06:46:03.964Z,12.41
2022-10-12T06:48:30.550Z,12.51
2022-10-12T06:50:57.188Z,12.66
2022-10-12T06:53:25.510Z,12.70
2022-10-12T06:55:52.032Z,13.02
2022-10-12T06:58:18.547Z,12.95
2022-10-12T07:00:45.136Z,13.28
2022-10-12T07:03:14.667Z,13.33
2022-10-12T07:05:41.228Z,13.67
2022-10-12T07:08:07.773Z,13.73
2022-10-12T07:10:34.317Z,13.70
2022-10-12T07:13:00.838Z,13.49
2022-10-12T07:15:27.467Z,13.49
2022-10-12T07:17:54.006Z,13.87
2022-10-12T07:20:20.569Z,13.72
2022-10-12T07:22:47.179Z,13.64
2022-10-12T07:25:13.833Z,13.98
2022-10-12T07:27:41.002Z,13.84
2022-10-12T07:30:08.758Z,13.76
2022-10-12T07:32:35.317Z,14.47
2022-10-12T07:35:01.850Z,14.03
2022-10-12T07:37:28.493Z,14.29
2022-10-12T07:39:57.522Z,14.74
2022-10-12T07:42:25.232Z,15.05
2022-10-12T07:44:51.877Z,14.87
2022-10-12T07:47:19.412Z,14.97
2022-10-12T07:49:46.387Z,15.35
2022-10-12T07:52:13.032Z,15.17
2022-10-12T07:54:39.719Z,15.64
2022-10-12T07:57:06.317Z,15.99
2022-10-12T07:59:32.940Z,15.87
2022-10-12T08:01:59.547Z,16.43
2022-10-12T08:04:26.223Z,16.91
2022-10-12T08:06:52.858Z,16.74
2022-10-12T08:09:19.490Z,16.62
2022-10-12T08:11:46.245Z,17.24
2022-10-12T08:14:16.768Z,17.29
2022-10-12T08:16:44.098Z,17.96
2022-10-12T08:19:11.491Z,17.45
2022-10-12T08:21:38.181Z,18.19
2022-10-12T08:24:05.174Z,18.59
2022-10-12T08:26:33.181Z,18.71
2022-10-12T08:29:01.416Z,18.72
2022-10-12T08:31:28.019Z,18.83
2022-10-12T08:33:54.650Z,19.39
2022-10-12T08:36:21.262Z,19.77
2022-10-12T08:38:53.938Z,19.26
2022-10-12T08:41:29.119Z,19.32
2022-10-12T08:44:28.395Z,19.22
2022-10-12T08:46:58.020Z,19.53
2022-10-12T08:49:26.424Z,19.77
2022-10-12T08:51:59.250Z,20.01
2022-10-12T08:54:32.249Z,20.50
2022-10-12T08:56:58.836Z,20.34
2022-10-12T08:59:28.277Z,20.41
2022-10-12T09:02:22.667Z,20.55
2022-10-12T09:04:56.669Z,19.97
2022-10-12T09:07:28.402Z,19.96
2022-10-12T09:10:36.184Z,19.61
2022-10-12T09:13:20.707Z,20.31
2022-10-12T09:16:22.612Z,20.33
2022-10-12T09:18:55.104Z,21.35
2022-10-12T09:21:24.920Z,21.81
2022-10-12T09:23:52.310Z,21.55
2022-10-12T09:26:38.165Z,21.23
2022-10-12T09:29:23.474Z,21.07
2022-10-12T09:32:28.699Z,22.16
2022-10-12T09:34:55.538Z,22.08
2022-10-12T09:37:26.221Z,22.11
2022-10-12T09:43:44.666Z,22.85
2022-10-12T10:02:22.688Z,22.74
2022-10-12T10:04:50.840Z,23.21
2022-10-12T10:07:33.442Z,23.36
2022-10-12T10:10:10.313Z,23.29
2022-10-12T10:13:05.610Z,22.68
2022-10-12T10:15:35.530Z,21.53
2022-10-12T10:18:07.615Z,22.00
2022-10-12T10:20:42.215Z,22.41
2022-10-12T10:23:38.146Z,21.74
2022-10-12T10:26:08.535Z,22.10
2022-10-12T10:28:37.969Z,22.44
2022-10-12T10:31:22.916Z,21.99
2022-10-12T10:34:11.145Z,21.53
2022-10-12T10:36:46.448Z,22.31
2022-10-12T10:39:40.808Z,21.88
2022-10-12T10:42:25.968Z,22.30
2022-10-12T10:44:58.540Z,21.86
2022-10-12T10:47:25.510Z,21.57
2022-10-12T10:49:57.459Z,21.38
2022-10-12T10:52:28.835Z,22.49
2022-10-12T10:55:10.493Z,22.33
2022-10-12T10:57:42.961Z,22.74
2022-10-12T11:03:08.431Z,22.01
2022-10-12T11:05:41.094Z,21.66
2022-10-12T11:08:39.645Z,22.45
2022-10-12T11:11:12.578Z,22.46
2022-10-12T11:13:47.785Z,21.04
2022-10-12T11:16:29.001Z,21.86
2022-10-12T11:18:58.782Z,22.50
2022-10-12T11:21:54.697Z,22.75
2022-10-12T11:24:34.027Z,20.65
2022-10-12T11:27:15.135Z,20.45
2022-10-12T11:29:42.052Z,20.85
2022-10-12T11:32:41.449Z,20.09
2022-10-12T11:35:15.627Z,19.35
2022-10-12T11:37:50.980Z,19.88
2022-10-12T11:40:41.282Z,19.40
2022-10-12T11:43:17.219Z,19.04
2022-10-12T11:45:47.596Z,19.50
2022-10-12T11:48:24.791Z,18.69
2022-10-12T11:51:01.274Z,20.02
2022-10-12T11:53:35.354Z,18.96
2022-10-12T11:56:07.254Z,19.46
2022-10-12T11:59:00.049Z,18.93
2022-10-12T12:01:37.843Z,19.39
2022-10-12T12:04:40.029Z,19.96
2022-10-12T12:07:22.997Z,19.28
2022-10-12T12:09:51.283Z,20.35
2022-10-12T12:12:23.601Z,20.32
2022-10-12T12:14:53.039Z,20.13
2022-10-12T12:17:19.628Z,19.89
2022-10-12T12:19:49.703Z,19.07
2022-10-12T12:22:47.139Z,19.87
2022-10-12T12:25:17.832Z,19.48
2022-10-12T12:27:52.309Z,19.90
2022-10-12T12:30:18.944Z,19.67
2022-10-12T12:33:04.636Z,19.82
2022-10-12T12:35:51.011Z,19.52
2022-10-12T12:38:24.310Z,19.42
2022-10-12T12:41:01.579Z,19.60
2022-10-12T12:43:31.268Z,19.09
2022-10-12T12:46:11.439Z,19.27
2022-10-12T12:48:43.862Z,19.51
2022-10-12T12:51:17.471Z,20.55
2022-10-12T12:54:00.846Z,20.41
2022-10-12T12:57:00.586Z,19.86
2022-10-12T13:00:04.284Z,18.98
2022-10-12T13:02:52.330Z,19.42
2022-10-12T13:05:38.322Z,20.61
2022-10-12T13:08:25.331Z,20.32
2022-10-12T13:11:23.641Z,19.75
2022-10-12T13:14:04.198Z,19.61
2022-10-12T13:19:46.186Z,19.60
2022-10-12T13:22:26.069Z,18.95
2022-10-12T13:24:58.498Z,19.07
2022-10-12T13:27:41.147Z,19.09
2022-10-12T13:30:11.216Z,18.94
2022-10-12T13:33:07.231Z,20.34
2022-10-12T13:35:48.884Z,20.88
2022-10-12T13:38:15.424Z,20.94
2022-10-12T13:40:51.509Z,20.10
2022-10-12T13:43:18.157Z,20.86
2022-10-12T13:45:48.470Z,21.28
2022-10-12T13:48:39.790Z,20.61
2022-10-12T13:51:23.359Z,21.31
2022-10-12T13:53:50.046Z,21.16
2022-10-12T13:56:19.689Z,20.80
2022-10-12T13:58:47.078Z,20.87
2022-10-12T14:01:14.282Z,19.67
2022-10-12T14:03:43.881Z,20.78
2022-10-12T14:06:30.153Z,20.64
2022-10-12T14:09:10.290Z,20.91
2022-10-12T14:11:38.141Z,20.70
2022-10-12T14:14:05.710Z,20.53
2022-10-12T14:16:32.555Z,20.47
2022-10-12T14:19:31.127Z,20.75
2022-10-12T14:22:00.276Z,20.63
2022-10-12T14:24:27.253Z,20.84
2022-10-12T14:27:02.165Z,20.56
2022-10-12T14:29:40.307Z,20.19
2022-10-12T14:32:38.375Z,20.59
2022-10-12T14:35:29.664Z,20.60
2022-10-12T14:37:57.441Z,19.99
2022-10-12T14:40:37.171Z,20.49
2022-10-12T14:43:04.245Z,20.15
2022-10-12T14:45:32.719Z,20.41
2022-10-12T14:48:01.309Z,20.52
2022-10-12T14:50:30.788Z,20.71
2022-10-12T14:53:09.160Z,19.26
2022-10-12T14:55:35.789Z,20.00
2022-10-12T14:58:03.439Z,19.70
2022-10-12T15:00:33.094Z,20.41
2022-10-12T15:03:00.375Z,20.15
2022-10-12T15:05:29.102Z,19.71
2022-10-12T15:07:55.839Z,19.71
2022-10-12T15:10:24.541Z,19.80
2022-10-12T15:12:52.000Z,19.78
2022-10-12T15:15:43.323Z,19.03
2022-10-12T15:18:09.997Z,20.01
2022-10-12T15:20:37.360Z,19.74
2022-10-12T15:23:04.770Z,19.50
2022-10-12T15:25:43.560Z,19.75
2022-10-12T15:28:10.432Z,19.87
2022-10-12T15:30:52.206Z,19.48
2022-10-12T15:33:24.339Z,19.18
2022-10-12T15:35:51.165Z,19.16
2022-10-12T15:38:17.848Z,19.34
2022-10-12T15:40:46.249Z,19.76
2022-10-12T15:43:13.214Z,19.15
2022-10-12T15:45:41.013Z,19.20
2022-10-12T15:48:09.257Z,19.18
2022-10-12T15:50:39.912Z,18.44
2022-10-12T15:53:07.421Z,18.92
2022-10-12T15:55:33.966Z,18.48
2022-10-12T15:58:00.509Z,18.21
2022-10-12T16:00:28.521Z,18.68
2022-10-12T16:02:56.710Z,18.83
2022-10-12T16:05:30.227Z,18.24
2022-10-12T16:07:56.850Z,18.02
2022-10-12T16:10:26.754Z,17.82
2022-10-12T16:12:54.121Z,17.67
2022-10-12T16:15:31.794Z,17.47
2022-10-12T16:18:00.422Z,17.60
2022-10-12T16:20:28.704Z,17.33
2022-10-12T16:22:55.802Z,17.40
2022-10-12T16:25:24.443Z,17.06
2022-10-12T16:27:52.573Z,16.95
2022-10-12T16:30:21.121Z,16.98
2022-10-12T16:32:47.686Z,16.79
2022-10-12T16:35:14.810Z,16.80
2022-10-12T16:37:41.355Z,16.86
2022-10-12T16:40:08.850Z,16.67
2022-10-12T16:42:35.591Z,16.54
2022-10-12T16:45:02.310Z,16.48
2022-10-12T16:47:28.844Z,16.18
2022-10-12T16:49:55.901Z,16.33
2022-10-12T16:52:24.607Z,16.27
2022-10-12T16:54:55.390Z,16.18
2022-10-12T16:57:23.076Z,16.07
2022-10-12T16:59:50.464Z,16.01
2022-10-12T17:02:18.780Z,15.93
2022-10-12T17:04:46.346Z,15.77
2022-10-12T17:07:13.113Z,15.87
2022-10-12T17:09:39.753Z,15.64
2022-10-12T17:12:08.779Z,15.54
2022-10-12T17:14:35.550Z,15.67
2022-10-12T17:17:02.056Z,15.59
2022-10-12T17:19:34.770Z,15.29
2022-10-12T17:22:04.521Z,15.28
2022-10-12T17:24:33.498Z,15.34
2022-10-12T17:27:02.837Z,15.26
2022-10-12T17:29:30.866Z,15.19
2022-10-12T17:31:58.795Z,15.26
2022-10-12T17:34:34.028Z,15.18
2022-10-12T17:37:01.881Z,15.11
2022-10-12T17:39:31.267Z,14.82
2022-10-12T17:41:58.081Z,14.62
2022-10-12T17:44:25.581Z,14.77
2022-10-12T17:46:52.600Z,14.79
2022-10-12T17:49:24.647Z,14.84
2022-10-12T17:51:51.815Z,14.92
2022-10-12T17:54:19.749Z,14.87
2022-10-12T17:56:46.361Z,14.66
2022-10-12T17:59:17.758Z,14.59
2022-10-12T18:01:47.198Z,14.60
2022-10-12T18:04:14.021Z,14.66
2022-10-12T18:06:41.125Z,14.53
2022-10-12T18:09:10.116Z,14.38
2022-10-12T18:11:37.823Z,14.60
2022-10-12T18:14:05.703Z,14.55
2022-10-12T18:16:33.716Z,14.32
2022-10-12T18:19:02.215Z,14.27
2022-10-12T18:21:31.376Z,14.45
2022-10-12T18:24:01.659Z,14.34
2022-10-12T18:26:30.464Z,14.26
2022-10-12T18:29:02.369Z,14.39
2022-10-12T18:31:30.030Z,14.12
2022-10-12T18:33:58.780Z,13.97
2022-10-12T18:36:26.260Z,14.18
2022-10-12T18:38:53.259Z,14.03
2022-10-12T18:41:22.561Z,13.97
2022-10-12T18:43:54.885Z,14.77
2022-10-12T18:46:21.514Z,14.58
2022-10-12T18:48:48.256Z,14.04
2022-10-12T18:51:22.219Z,14.37
2022-10-12T18:53:49.200Z,14.18
2022-10-12T18:56:16.058Z,14.12
2022-10-12T18:58:42.685Z,13.98
2022-10-12T19:01:17.823Z,14.93
2022-10-12T19:03:44.405Z,14.45
2022-10-12T19:06:14.950Z,13.97
2022-10-12T19:08:43.640Z,14.67
2022-10-12T19:11:11.954Z,14.70
2022-10-12T19:13:39.842Z,14.36
2022-10-12T19:16:15.395Z,14.29
2022-10-12T19:18:43.208Z,14.20
2022-10-12T19:21:18.310Z,14.16
2022-10-12T19:23:45.666Z,13.88
2022-10-12T19:26:19.052Z,13.76
2022-10-12T19:28:46.874Z,13.63
2022-10-12T19:31:17.257Z,13.77
2022-10-12T19:33:47.218Z,13.63
2022-10-12T19:36:16.826Z,13.72
2022-10-12T19:38:45.794Z,13.64
2022-10-12T19:41:13.140Z,13.65
2022-10-12T19:43:40.140Z,13.37
2022-10-12T19:46:09.237Z,13.49
2022-10-12T19:48:36.891Z,13.54
2022-10-12T19:51:10.690Z,13.32
2022-10-12T19:53:38.142Z,13.33
2022-10-12T19:56:13.999Z,13.84
2022-10-12T19:58:41.947Z,13.66
2022-10-12T20:01:14.538Z,13.22
2022-10-12T20:03:46.758Z,13.49
2022-10-12T20:06:14.052Z,13.53
2022-10-12T20:08:42.400Z,13.40
2022-10-12T20:11:14.205Z,15.33
2022-10-12T20:13:43.548Z,17.29
2022-10-12T20:16:10.064Z,17.90
2022-10-12T20:18:36.602Z,17.82
2022-10-12T20:21:08.663Z,14.45
2022-10-12T20:23:36.309Z,13.64
2022-10-12T20:26:07.349Z,13.63
2022-10-12T20:28:35.827Z,13.54
2022-10-12T20:31:05.199Z,13.22
2022-10-12T20:33:32.906Z,13.24
2022-10-12T20:36:02.756Z,13.64
2022-10-12T20:38:29.742Z,13.07
2022-10-12T20:41:08.690Z,13.12
2022-10-12T20:43:36.302Z,13.47
2022-10-12T20:46:10.191Z,13.05
2022-10-12T20:48:39.598Z,13.19
2022-10-12T20:51:07.829Z,13.56
2022-10-12T20:53:34.896Z,12.97
2022-10-12T20:56:08.719Z,13.69
2022-10-12T20:58:35.274Z,13.48
2022-10-12T21:01:03.800Z,13.41
2022-10-12T21:03:30.486Z,13.10
2022-10-12T21:05:57.565Z,13.09
2022-10-12T21:08:24.216Z,12.95
2022-10-12T21:10:50.733Z,13.43
2022-10-12T21:13:17.266Z,13.14
2022-10-12T21:15:50.440Z,13.21
2022-10-12T21:18:16.957Z,12.98
2022-10-12T21:20:43.435Z,12.88
2022-10-12T21:23:09.948Z,13.25
2022-10-12T21:25:36.480Z,13.41
2022-10-12T21:28:03.014Z,13.41
2022-10-12T21:30:29.521Z,13.07
2022-10-12T21:32:56.083Z,13.10
2022-10-12T21:35:22.644Z,12.92
2022-10-12T21:37:49.141Z,12.82
2022-10-12T21:40:15.649Z,12.72
2022-10-12T21:42:42.132Z,12.93
2022-10-12T21:45:08.973Z,12.79
2022-10-12T21:56:35.944Z,13.04
2022-10-12T21:59:04.364Z,13.04
2022-10-12T22:01:36.596Z,13.40
2022-10-12T22:04:11.692Z,13.21
2022-10-12T22:06:38.404Z,13.21
2022-10-12T22:09:16.265Z,13.22
2022-10-12T22:11:44.101Z,13.23
2022-10-12T22:14:14.570Z,13.33
2022-10-12T22:16:43.198Z,13.29
2022-10-12T22:19:15.138Z,13.16
2022-10-12T22:21:41.964Z,12.98
2022-10-12T22:24:08.689Z,13.16
2022-10-12T22:26:35.434Z,12.94
2022-10-12T22:29:04.370Z,13.25
2022-10-12T22:31:31.304Z,13.27
2022-10-12T22:33:57.970Z,13.25
2022-10-12T22:36:24.703Z,13.01
2022-10-12T22:38:51.357Z,13.00
2022-10-12T22:41:21.994Z,13.02
2022-10-12T22:43:53.733Z,13.07
2022-10-12T22:46:22.436Z,13.54
2022-10-12T22:48:49.471Z,13.32
2022-10-12T22:51:20.566Z,13.14
2022-10-12T22:53:47.219Z,13.07
2022-10-12T22:56:16.951Z,13.27
2022-10-12T22:58:44.438Z,13.57
2022-10-12T23:01:14.328Z,13.96
2022-10-12T23:03:41.606Z,14.10
2022-10-12T23:06:16.447Z,14.43
2022-10-12T23:08:43.392Z,14.28
2022-10-12T23:11:13.376Z,13.92
2022-10-12T23:13:42.413Z,13.65
2022-10-12T23:16:15.081Z,14.02
2022-10-12T23:18:41.991Z,14.22
2022-10-12T23:21:11.696Z,14.48
2022-10-12T23:23:39.483Z,13.92
2022-10-12T23:26:24.365Z,14.18
2022-10-12T23:28:51.556Z,14.06
2022-10-12T23:31:20.894Z,14.17
2022-10-12T23:33:55.451Z,14.42
2022-10-12T23:36:22.007Z,14.16
2022-10-12T23:38:48.558Z,14.29
2022-10-12T23:41:15.131Z,14.30
2022-10-12T23:43:42.082Z,14.52
2022-10-12T23:46:11.331Z,14.09
2022-10-12T23:48:38.189Z,14.23
2022-10-12T23:51:09.345Z,14.64
2022-10-12T23:53:36.476Z,14.32
2022-10-12T23:56:03.793Z,14.04
2022-10-12T23:58:30.502Z,14.03
